Time;durP1;ratioP1;P1;durP2;ratioP2;P2;SDS_P1;SDS_P2;PMS_P1;PMS_P2;Temp;Humidity;BMP_temperature;BMP_pressure;BME280_temperature;BME280_humidity;BME280_pressure;Samples;Min_cycle;Max_cycle;Signal;HPM_P1;HPM_P2
2023/01/25 00:00:41;;;;;;;30.10;18.13;;;;;;;1.69;79.94;103196.91;5075476;28;20068;-52
2023/01/25 00:03:08;;;;;;;27.85;16.75;;;;;;;1.72;79.63;103194.19;5075546;28;20102;-52
2023/01/25 00:05:34;;;;;;;32.90;16.90;;;;;;;1.75;79.15;103181.94;5075947;28;20445;-51
2023/01/25 00:08:01;;;;;;;30.58;17.75;;;;;;;1.68;80.32;103178.63;5074789;28;20040;-50
2023/01/25 00:10:28;;;;;;;30.92;17.75;;;;;;;1.78;79.66;103176.63;5075636;28;20052;-50
2023/01/25 00:12:55;;;;;;;31.17;17.90;;;;;;;1.85;79.30;103184.28;5075014;28;20371;-50
2023/01/25 00:15:23;;;;;;;31.60;18.45;;;;;;;1.72;80.21;103170.66;5075572;28;20052;-51
2023/01/25 00:17:51;;;;;;;30.45;17.73;;;;;;;1.83;80.42;103174.75;5074979;28;20393;-50
2023/01/25 00:20:17;;;;;;;28.27;17.23;;;;;;;1.85;80.28;103180.81;5075355;28;20047;-50
2023/01/25 00:22:44;;;;;;;32.30;17.92;;;;;;;1.86;79.98;103167.69;5075300;28;20541;-51
2023/01/25 00:25:11;;;;;;;29.60;17.60;;;;;;;1.83;79.89;103156.44;5075273;28;20097;-52
2023/01/25 00:27:37;;;;;;;32.05;19.00;;;;;;;1.86;80.16;103170.31;5074836;28;20052;-51
2023/01/25 00:30:05;;;;;;;27.50;17.05;;;;;;;1.64;79.84;103164.75;5074980;28;20128;-50
2023/01/25 00:32:39;;;;;;;26.98;16.77;;;;;;;1.69;80.40;103162.88;5075173;28;20098;-50
2023/01/25 00:35:11;;;;;;;29.30;17.33;;;;;;;1.69;80.25;103168.13;5074956;28;20201;-52
2023/01/25 00:37:42;;;;;;;31.55;18.08;;;;;;;1.63;80.74;103163.03;5075295;28;20048;-52
2023/01/25 00:40:11;;;;;;;30.40;18.05;;;;;;;1.64;80.66;103163.91;5069834;28;20048;-52
2023/01/25 00:42:39;;;;;;;29.60;18.27;;;;;;;1.51;81.23;103161.56;5073587;28;20136;-51
2023/01/25 00:45:09;;;;;;;35.28;18.45;;;;;;;1.71;81.03;103161.09;5073805;28;20632;-53
2023/01/25 00:47:36;;;;;;;30.55;18.75;;;;;;;1.76;80.16;103150.50;5074278;28;20048;-52
2023/01/25 00:50:05;;;;;;;32.10;18.20;;;;;;;1.75;80.92;103153.16;5073458;28;20127;-52
2023/01/25 00:52:32;;;;;;;28.73;16.85;;;;;;;1.48;80.99;103142.47;5074667;28;20059;-51
2023/01/25 00:54:59;;;;;;;30.48;16.73;;;;;;;1.19;82.29;103146.59;5074762;28;20394;-53
2023/01/25 00:57:26;;;;;;;33.95;19.02;;;;;;;1.17;82.44;103137.94;5074675;28;20044;-52
2023/01/25 00:59:53;;;;;;;32.47;17.85;;;;;;;1.23;82.67;103145.63;5074273;28;20044;-52
2023/01/25 01:02:19;;;;;;;31.92;18.73;;;;;;;1.21;82.39;103139.59;5074448;28;20056;-50
2023/01/25 01:04:46;;;;;;;30.80;17.95;;;;;;;1.41;82.20;103144.34;5074358;28;20056;-51
2023/01/25 01:07:14;;;;;;;34.97;19.20;;;;;;;1.51;82.29;103140.63;5074091;28;20131;-52
2023/01/25 01:09:40;;;;;;;35.80;20.27;;;;;;;1.61;82.15;103138.66;5073963;28;20494;-51
2023/01/25 01:12:08;;;;;;;35.30;20.02;;;;;;;1.71;81.40;103140.16;5074382;28;20048;-51
2023/01/25 01:14:34;;;;;;;33.78;19.38;;;;;;;1.77;81.60;103140.91;5074087;28;20410;-52
2023/01/25 01:17:01;;;;;;;33.78;18.85;;;;;;;1.75;81.34;103138.31;5073931;28;20166;-52
2023/01/25 01:19:28;;;;;;;32.80;19.35;;;;;;;1.80;81.64;103139.06;5074368;28;20052;-52
2023/01/25 01:21:54;;;;;;;38.08;20.02;;;;;;;1.63;81.44;103144.69;5073991;28;20056;-52
2023/01/25 01:24:21;;;;;;;32.60;18.98;;;;;;;1.61;82.12;103132.56;5074255;28;20045;-51
2023/01/25 01:26:47;;;;;;;32.42;19.15;;;;;;;1.65;81.35;103139.44;5073420;28;20449;-53
2023/01/25 01:29:14;;;;;;;35.95;19.80;;;;;;;1.64;81.32;103149.06;5073868;28;20041;-52
2023/01/25 01:31:41;;;;;;;35.17;20.35;;;;;;;1.69;81.36;103141.97;5074022;28;20041;-53
2023/01/25 01:34:14;;;;;;;;;;;;;;;1.78;82.06;103148.69;5074401;28;20049;-51
2023/01/25 01:36:41;;;;;;;33.97;18.17;;;;;;;1.76;81.95;103142.63;5073943;28;19920;-54
2023/01/25 01:39:07;;;;;;;33.53;18.48;;;;;;;1.62;81.30;103144.72;5073898;28;20518;-53
2023/01/25 01:41:35;;;;;;;34.40;18.88;;;;;;;1.38;82.56;103148.78;5073440;28;20087;-50
2023/01/25 01:44:04;;;;;;;32.42;18.50;;;;;;;1.45;82.55;103147.75;5073506;28;20498;-51
2023/01/25 01:49:17;;;;;;;32.30;17.33;;;;;;;1.41;81.89;103126.03;5111015;27;20376;-58
2023/01/25 01:51:51;;;;;;;35.53;18.88;;;;;;;1.56;82.56;103135.28;5111095;28;20488;-51
2023/01/25 01:54:30;;;;;;;35.97;19.45;;;;;;;1.53;82.20;103138.00;5111339;28;20131;-52
2023/01/25 01:57:04;;;;;;;31.90;18.67;;;;;;;1.43;82.22;103133.88;5110921;28;20040;-52
2023/01/25 01:59:37;;;;;;;33.33;18.85;;;;;;;1.56;82.48;103137.03;5110778;28;20048;-50
2023/01/25 02:02:05;;;;;;;36.05;19.73;;;;;;;1.42;83.26;103127.78;5110941;28;20044;-52
2023/01/25 02:04:32;;;;;;;37.03;20.55;;;;;;;1.54;82.67;103132.69;5111176;28;20062;-52
2023/01/25 02:07:10;;;;;;;36.53;19.50;;;;;;;1.54;82.76;103122.22;5110594;28;20048;-52
2023/01/25 02:09:37;;;;;;;37.90;21.45;;;;;;;1.59;83.16;103124.75;5110636;28;20078;-51
2023/01/25 02:12:06;;;;;;;43.30;22.67;;;;;;;1.63;82.62;103130.78;5110857;28;20047;-52
2023/01/25 02:14:33;;;;;;;39.08;21.02;;;;;;;1.76;82.58;103124.31;5110647;28;20097;-51
2023/01/25 02:17:02;;;;;;;39.92;20.40;;;;;;;1.68;82.74;103116.66;5111078;28;20043;-50
2023/01/25 02:19:47;;;;;;;41.58;22.63;;;;;;;1.79;82.95;103129.50;5110351;28;20506;-50
2023/01/25 02:22:21;;;;;;;44.10;22.55;;;;;;;1.84;82.46;103126.78;5110923;28;20126;-52
2023/01/25 02:25:00;;;;;;;42.38;21.48;;;;;;;1.30;83.66;103125.44;5110527;28;20048;-51
2023/01/25 02:27:27;;;;;;;38.97;20.50;;;;;;;1.20;84.39;103121.31;5110718;28;20397;-51
2023/01/25 02:29:54;;;;;;;42.85;22.15;;;;;;;1.33;83.80;103113.16;5109936;28;20504;-50
2023/01/25 02:32:21;;;;;;;40.38;21.33;;;;;;;1.50;84.46;103125.81;5110849;28;20520;-50
2023/01/25 02:34:48;;;;;;;40.50;21.52;;;;;;;1.43;84.05;103119.03;5110401;28;20149;-50
2023/01/25 02:37:15;;;;;;;41.03;21.45;;;;;;;1.49;84.21;103118.00;5110578;28;20050;-52
2023/01/25 02:39:42;;;;;;;41.72;22.05;;;;;;;1.34;84.78;103112.25;5103192;28;20105;-52
2023/01/25 02:42:09;;;;;;;42.25;21.42;;;;;;;1.10;85.34;103124.13;5129819;27;20051;-50
2023/01/25 02:44:38;;;;;;;42.05;21.88;;;;;;;1.04;86.02;103110.34;5130134;28;20079;-50
2023/01/25 02:47:04;;;;;;;38.25;20.70;;;;;;;1.26;85.20;103116.81;5129947;27;20055;-49
2023/01/25 02:49:35;;;;;;;41.95;22.73;;;;;;;1.41;84.87;103110.34;5130384;28;20374;-49
2023/01/25 02:52:04;;;;;;;45.55;23.20;;;;;;;1.52;84.03;103110.94;5130585;27;20508;-50
2023/01/25 02:54:31;;;;;;;46.10;22.88;;;;;;;1.58;84.50;103111.69;5130792;27;20557;-51
2023/01/25 02:56:58;;;;;;;45.15;23.05;;;;;;;1.70;83.82;103109.63;5130518;27;20134;-49
2023/01/25 02:59:29;;;;;;;43.60;21.55;;;;;;;1.65;84.19;103106.28;5122301;27;20129;-50
2023/01/25 03:01:58;;;;;;;42.10;22.80;;;;;;;1.71;84.14;103113.97;5116768;28;20051;-50
2023/01/25 03:04:25;;;;;;;45.38;23.50;;;;;;;1.73;84.14;103109.56;5116905;28;20507;-52
2023/01/25 03:06:52;;;;;;;40.75;22.35;;;;;;;1.73;83.76;103112.19;5108836;28;20063;-52
2023/01/25 03:09:19;;;;;;;44.75;22.00;;;;;;;1.73;84.05;103112.19;5095658;28;20063;-51
2023/01/25 03:11:48;;;;;;;42.47;22.02;;;;;;;1.67;84.08;103107.13;5095896;28;20036;-50
2023/01/25 03:14:16;;;;;;;42.47;22.20;;;;;;;1.62;83.51;103106.38;5096215;28;20052;-50
2023/01/25 03:16:43;;;;;;;42.00;21.98;;;;;;;1.73;83.75;103112.19;5095705;28;20102;-50
2023/01/25 03:19:10;;;;;;;45.35;21.50;;;;;;;1.48;83.51;103111.06;5096207;28;20040;-51
2023/01/25 03:21:39;;;;;;;40.90;21.25;;;;;;;1.12;84.81;103111.88;5095789;28;20048;-52
2023/01/25 03:24:07;;;;;;;48.92;23.83;;;;;;;0.81;87.65;103105.63;5096079;28;20101;-49
2023/01/25 03:27:10;;;;;;;50.28;25.88;;;;;;;1.12;86.31;103106.66;5095765;28;20048;-51
2023/01/25 03:29:32;;;;;;;50.83;24.13;;;;;;;1.30;86.18;103101.91;5095437;28;20040;-52
2023/01/25 03:31:59;;;;;;;45.47;22.90;;;;;;;1.38;84.92;103101.72;5095654;28;20489;-52
2023/01/25 03:34:26;;;;;;;43.70;22.70;;;;;;;1.45;85.13;103103.28;5095903;28;20123;-52
2023/01/25 03:36:53;;;;;;;47.80;23.52;;;;;;;1.44;84.89;103097.22;5095733;28;20054;-51
2023/01/25 03:39:20;;;;;;;46.10;23.52;;;;;;;1.59;85.01;103095.13;5095412;28;20048;-50
2023/01/25 03:41:46;;;;;;;45.58;23.00;;;;;;;1.57;84.32;103095.16;5095592;28;20097;-52
2023/01/25 03:44:14;;;;;;;47.50;22.85;;;;;;;1.34;84.63;103087.84;5095340;28;20058;-50
2023/01/25 03:46:43;;;;;;;43.47;22.23;;;;;;;0.96;85.50;103094.81;5095134;28;20036;-50
2023/01/25 03:49:10;;;;;;;50.90;23.58;;;;;;;1.15;85.94;103088.28;5095035;28;20040;-51
2023/01/25 03:51:37;;;;;;;46.13;22.98;;;;;;;1.34;85.85;103093.94;5095545;28;20105;-52
2023/01/25 03:54:04;;;;;;;47.28;22.75;;;;;;;1.35;84.62;103086.97;5095477;28;20044;-51
2023/01/25 03:56:33;;;;;;;44.17;22.23;;;;;;;1.32;85.14;103079.19;5095173;28;20451;-53
2023/01/25 03:59:06;;;;;;;44.78;22.80;;;;;;;1.40;84.77;103079.00;5095246;28;20067;-51
2023/01/25 04:01:34;;;;;;;45.97;23.45;;;;;;;1.48;84.87;103077.91;5094907;28;20094;-51
2023/01/25 04:04:01;;;;;;;50.92;24.33;;;;;;;1.28;85.03;103069.72;5095292;28;20105;-52
2023/01/25 04:06:28;;;;;;;47.40;23.13;;;;;;;1.33;85.33;103070.47;5094996;28;20081;-51
2023/01/25 04:08:56;;;;;;;53.10;23.55;;;;;;;1.40;84.94;103073.75;5094420;28;20047;-52
2023/01/25 04:11:25;;;;;;;52.50;24.02;;;;;;;1.32;85.11;103064.34;5094122;28;20079;-53
2023/01/25 04:13:52;;;;;;;47.70;23.35;;;;;;;1.13;85.96;103061.31;5094808;28;20135;-52
2023/01/25 04:16:20;;;;;;;49.45;24.27;;;;;;;1.07;86.39;103056.22;5094930;28;20119;-52
2023/01/25 04:19:01;;;;;;;48.53;23.47;;;;;;;1.22;86.39;103054.13;5094927;28;20044;-52
2023/01/25 04:21:30;;;;;;;50.97;23.80;;;;;;;1.21;86.33;103050.69;5094901;28;20051;-52
2023/01/25 04:23:56;;;;;;;53.25;24.55;;;;;;;1.30;85.65;103047.00;5094534;28;20059;-52
2023/01/25 04:26:24;;;;;;;50.75;23.23;;;;;;;1.30;86.17;103042.59;5094763;28;20088;-50
2023/01/25 04:28:54;;;;;;;53.43;24.87;;;;;;;1.33;86.16;103039.94;5094557;28;20040;-51
2023/01/25 04:31:21;;;;;;;54.20;26.35;;;;;;;1.10;86.88;103030.00;5094600;28;20101;-52
2023/01/25 04:33:47;;;;;;;53.75;25.95;;;;;;;1.18;87.06;103031.59;5094747;28;20047;-50
2023/01/25 04:36:17;;;;;;;52.42;23.98;;;;;;;1.07;87.08;103032.69;5094359;28;20056;-52
2023/01/25 04:38:45;;;;;;;56.63;24.77;;;;;;;1.04;87.53;103026.72;5094530;28;20043;-52
2023/01/25 04:41:12;;;;;;;57.25;24.98;;;;;;;1.27;86.92;103037.44;5079562;28;20106;-51
2023/01/25 04:43:40;;;;;;;55.90;25.77;;;;;;;1.32;87.11;103032.13;5074034;28;20053;-52
2023/01/25 04:46:09;;;;;;;58.00;27.23;;;;;;;1.38;86.56;103038.94;5073958;28;20094;-51
2023/01/25 04:48:36;;;;;;;55.88;25.75;;;;;;;1.42;86.77;103032.72;5073483;28;20045;-52
2023/01/25 04:51:05;;;;;;;53.55;25.80;;;;;;;1.40;86.45;103031.91;5074092;28;20052;-51
2023/01/25 04:53:32;;;;;;;48.67;24.63;;;;;;;1.49;86.11;103029.06;5073713;28;20075;-52
2023/01/25 04:56:01;;;;;;;55.90;25.92;;;;;;;1.33;86.63;103026.00;5073823;28;20044;-53
2023/01/25 04:58:32;;;;;;;58.58;27.02;;;;;;;1.41;86.35;103020.56;5073553;28;20477;-50
2023/01/25 05:01:01;;;;;;;62.50;28.52;;;;;;;1.46;86.58;103019.56;5073714;28;20098;-51
2023/01/25 05:03:28;;;;;;;59.80;26.63;;;;;;;1.50;86.27;103015.94;5073697;28;20049;-52
2023/01/25 05:05:56;;;;;;;60.53;28.38;;;;;;;1.57;85.92;103016.66;5073902;28;20078;-51
2023/01/25 05:08:25;;;;;;;62.47;27.77;;;;;;;1.61;86.06;103013.06;5092988;28;20044;-52
2023/01/25 05:10:57;;;;;;;67.47;28.33;;;;;;;1.46;86.58;103018.69;5093924;28;20040;-50
2023/01/25 05:13:33;;;;;;;60.20;28.33;;;;;;;1.45;86.78;103009.13;5093681;28;20052;-52
2023/01/25 05:16:10;;;;;;;64.07;27.83;;;;;;;1.41;87.35;103007.50;5093588;28;20405;-53
2023/01/25 05:18:38;;;;;;;62.78;28.90;;;;;;;1.57;87.18;103000.97;5093750;28;20051;-53
2023/01/25 05:24:05;;;;;;;64.03;28.77;;;;;;;1.60;86.72;103011.34;5093344;28;20127;-51
2023/01/25 05:27:04;;;;;;;62.80;25.92;;;;;;;1.31;87.79;103002.50;5093711;28;20044;-51
2023/01/25 05:29:20;;;;;;;64.57;27.98;;;;;;;1.13;88.01;103010.81;5093286;28;20052;-51
2023/01/25 05:31:52;;;;;;;68.82;29.27;;;;;;;1.13;88.28;103009.03;5093637;28;20051;-51
2023/01/25 05:34:19;;;;;;;67.20;29.55;;;;;;;1.19;89.00;103007.19;5093542;28;20486;-52
2023/01/25 05:36:46;;;;;;;67.88;30.55;;;;;;;1.22;88.37;103000.13;5092384;28;20044;-51
2023/01/25 05:39:13;;;;;;;70.43;29.60;;;;;;;1.28;88.89;102999.94;5093288;28;20039;-51
2023/01/25 05:41:39;;;;;;;72.82;30.45;;;;;;;1.29;88.05;102995.56;5093533;28;20048;-51
2023/01/25 05:44:06;;;;;;;71.50;30.08;;;;;;;1.32;88.37;103000.72;5093333;28;20048;-51
2023/01/25 05:46:38;;;;;;;78.95;33.92;;;;;;;1.37;88.67;103005.84;5093579;28;20507;-50
2023/01/25 05:49:06;;;;;;;76.25;32.42;;;;;;;1.27;88.56;102994.75;5092750;28;20047;-50
2023/01/25 05:51:34;;;;;;;74.40;31.73;;;;;;;1.29;89.13;103006.03;5093286;28;20046;-52
2023/01/25 05:54:01;;;;;;;77.45;32.80;;;;;;;1.41;88.22;103005.72;5093596;28;20128;-51
2023/01/25 05:56:28;;;;;;;68.25;30.48;;;;;;;1.38;87.70;103000.56;5093351;28;20135;-52
2023/01/25 05:58:57;;;;;;;74.93;32.63;;;;;;;1.47;87.85;103000.31;5093311;28;20044;-51
2023/01/25 06:01:25;;;;;;;72.20;31.17;;;;;;;1.50;87.49;102989.78;5092787;28;20040;-51
2023/01/25 06:03:55;;;;;;;71.82;30.33;;;;;;;1.53;87.43;102999.34;5093467;28;20040;-51
2023/01/25 06:06:24;;;;;;;71.35;30.90;;;;;;;1.57;87.31;102994.88;5092609;28;20074;-50
2023/01/25 06:08:51;;;;;;;79.53;31.58;;;;;;;1.65;87.60;102992.91;5092771;28;20160;-51
2023/01/25 06:11:21;;;;;;;70.13;30.17;;;;;;;1.44;88.32;102989.97;5093041;28;20404;-50
2023/01/25 06:13:49;;;;;;;84.70;33.25;;;;;;;1.51;87.98;102988.91;5092767;28;20066;-50
2023/01/25 06:16:18;;;;;;;71.53;30.42;;;;;;;1.62;88.31;102987.75;5093268;28;20052;-51
2023/01/25 06:19:06;;;;;;;80.25;33.17;;;;;;;1.56;87.72;102985.31;5092745;28;20123;-50
2023/01/25 06:21:44;;;;;;;75.43;29.38;;;;;;;1.31;88.16;102988.53;5093222;28;20496;-52
2023/01/25 06:24:11;;;;;;;81.00;31.85;;;;;;;1.05;89.51;102991.81;5093037;28;20131;-50
2023/01/25 06:26:38;;;;;;;77.10;31.40;;;;;;;1.10;89.80;102985.56;5093111;28;20094;-51
2023/01/25 06:29:05;;;;;;;81.85;30.85;;;;;;;1.13;90.01;102989.88;5092687;28;20493;-50
2023/01/25 06:31:33;;;;;;;82.03;34.53;;;;;;;1.21;89.91;102987.91;5092995;28;20063;-51
2023/01/25 06:34:03;;;;;;;83.18;32.83;;;;;;;1.02;90.15;102989.25;5093279;28;20105;-50
2023/01/25 06:36:30;;;;;;;87.82;34.60;;;;;;;1.02;91.11;102984.91;5096838;28;20490;-51
2023/01/25 06:38:56;;;;;;;89.18;34.47;;;;;;;1.09;90.90;102989.09;5096635;28;20055;-52
2023/01/25 06:41:23;;;;;;;83.68;34.08;;;;;;;1.07;91.09;102985.63;5086071;28;20055;-50
2023/01/25 06:43:51;;;;;;;95.57;35.92;;;;;;;0.90;91.53;102982.59;5075905;28;20094;-50
2023/01/25 06:46:19;;;;;;;86.60;34.67;;;;;;;0.94;91.93;102987.69;5075171;28;20052;-51
2023/01/25 06:48:45;;;;;;;95.75;36.60;;;;;;;0.84;91.94;102983.59;5074974;28;20135;-51
2023/01/25 06:51:13;;;;;;;90.78;32.10;;;;;;;0.86;92.06;102976.56;5075111;28;20068;-53
2023/01/25 06:53:42;;;;;;;93.30;34.33;;;;;;;0.85;92.70;102992.28;5075514;28;20095;-51
2023/01/25 06:56:16;;;;;;;92.07;35.30;;;;;;;0.98;91.46;102990.25;5075884;28;20045;-51
2023/01/25 06:58:44;;;;;;;93.30;34.55;;;;;;;1.00;91.91;102986.72;5075503;28;20048;-53
2023/01/25 07:01:21;;;;;;;98.93;34.35;;;;;;;1.10;91.41;102987.34;5075836;28;20053;-51
2023/01/25 07:03:50;;;;;;;100.75;35.88;;;;;;;1.21;91.01;102987.06;5075763;28;20050;-52
2023/01/25 07:06:17;;;;;;;92.60;34.55;;;;;;;1.15;91.01;102986.31;5076210;28;20048;-51
2023/01/25 07:08:45;;;;;;;98.30;35.15;;;;;;;1.15;91.19;102988.09;5093084;28;20044;-52
2023/01/25 07:11:12;;;;;;;97.30;35.70;;;;;;;1.19;91.08;102997.56;5096133;28;20048;-52
2023/01/25 07:13:41;;;;;;;94.80;34.15;;;;;;;1.26;91.26;102991.28;5096002;28;20454;-52
2023/01/25 07:16:11;;;;;;;94.03;35.42;;;;;;;1.15;91.26;102996.78;5095950;28;20097;-52
2023/01/25 07:18:37;;;;;;;110.25;37.67;;;;;;;1.26;91.09;102995.66;5095878;28;20047;-51
2023/01/25 07:21:07;;;;;;;92.68;34.47;;;;;;;1.32;90.00;102993.72;5095759;28;20120;-53
2023/01/25 07:23:34;;;;;;;99.57;35.42;;;;;;;1.00;92.15;102991.06;5096006;28;20050;-52
2023/01/25 07:26:01;;;;;;;98.65;35.65;;;;;;;1.21;90.84;102987.91;5095587;28;20051;-52
2023/01/25 07:28:30;;;;;;;106.65;35.83;;;;;;;1.30;90.44;102985.06;5095781;28;20094;-52
2023/01/25 07:31:05;;;;;;;100.45;35.47;;;;;;;1.42;90.68;102989.16;5095255;28;20461;-52
2023/01/25 07:33:33;;;;;;;103.25;36.88;;;;;;;1.33;90.42;102992.00;5095679;28;20401;-51
2023/01/25 07:36:03;;;;;;;87.70;34.83;;;;;;;1.41;90.19;102992.66;5095712;28;20108;-52
2023/01/25 07:38:29;;;;;;;103.75;36.10;;;;;;;1.36;89.92;102988.44;5095549;28;20423;-51
2023/01/25 07:40:56;;;;;;;101.10;37.35;;;;;;;1.24;90.32;102984.38;5095646;28;20055;-51
2023/01/25 07:43:24;;;;;;;109.30;39.47;;;;;;;1.41;90.31;102994.41;5092408;28;20047;-51
2023/01/25 07:45:51;;;;;;;105.20;37.67;;;;;;;1.51;90.13;102985.41;5095206;28;20505;-51
2023/01/25 07:48:19;;;;;;;104.75;37.17;;;;;;;1.45;88.81;102985.56;5094891;28;20143;-51
2023/01/25 07:50:48;;;;;;;108.05;40.40;;;;;;;1.44;88.97;102979.50;5095188;28;20101;-51
2023/01/25 07:53:15;;;;;;;101.07;36.83;;;;;;;1.46;88.86;102982.06;5095725;28;20097;-49
2023/01/25 07:55:42;;;;;;;101.78;38.33;;;;;;;1.27;89.31;102973.84;5095268;28;20101;-52
2023/01/25 07:58:10;;;;;;;110.40;39.33;;;;;;;1.28;89.04;102973.78;5094986;28;20044;-51
2023/01/25 08:00:37;;;;;;;108.25;38.17;;;;;;;1.21;89.03;102974.84;5094707;28;20064;-52
2023/01/25 08:03:06;;;;;;;118.47;39.42;;;;;;;1.21;89.81;102971.38;5095204;28;20047;-52
2023/01/25 08:05:32;;;;;;;105.97;39.25;;;;;;;1.15;90.02;102970.63;5095099;28;20048;-50
2023/01/25 08:07:59;;;;;;;111.40;38.78;;;;;;;1.15;90.21;102972.41;5071482;28;20135;-50
2023/01/25 08:10:26;;;;;;;104.70;39.33;;;;;;;1.21;89.81;102979.22;5092169;28;20090;-52
2023/01/25 08:12:52;;;;;;;113.63;39.00;;;;;;;1.12;90.55;102978.53;5055872;28;21425;-49
2023/01/25 08:15:19;;;;;;;118.65;40.08;;;;;;;1.28;89.55;102965.94;5105482;28;20511;-50
2023/01/25 08:17:46;;;;;;;110.38;37.45;;;;;;;1.14;89.93;102975.91;5095408;28;20393;-53
2023/01/25 08:20:12;;;;;;;116.43;39.42;;;;;;;1.04;90.66;102969.19;5084381;28;20489;-53
2023/01/25 08:22:39;;;;;;;116.07;39.30;;;;;;;1.02;91.04;102970.97;5073774;28;20167;-50
2023/01/25 08:25:06;;;;;;;116.90;41.03;;;;;;;1.01;91.13;102962.28;5102704;28;20044;-50
2023/01/25 08:27:33;;;;;;;108.18;36.70;;;;;;;0.98;90.54;102964.09;5076762;28;20126;-49
2023/01/25 08:30:01;;;;;;;103.22;36.83;;;;;;;0.97;91.16;102962.41;5097562;28;20116;-49
2023/01/25 08:32:27;;;;;;;105.88;36.47;;;;;;;0.92;91.32;102967.72;5101771;28;20040;-50
2023/01/25 08:34:54;;;;;;;109.30;38.80;;;;;;;0.85;92.10;102963.53;5086806;28;20048;-49
2023/01/25 08:37:21;;;;;;;109.78;37.15;;;;;;;0.83;92.33;102953.13;5077059;28;20043;-50
2023/01/25 08:39:47;;;;;;;114.10;38.90;;;;;;;0.69;92.46;102956.09;5099448;28;20097;-49
2023/01/25 08:42:14;;;;;;;109.68;38.95;;;;;;;0.70;93.11;102955.16;5070844;28;20055;-53
2023/01/25 08:44:40;;;;;;;107.68;36.03;;;;;;;0.68;93.17;102953.50;5081883;28;20113;-51
2023/01/25 08:47:07;;;;;;;107.88;37.38;;;;;;;0.73;92.84;102959.47;5100344;28;20077;-51
2023/01/25 08:49:34;;;;;;;107.03;36.53;;;;;;;0.71;93.33;102951.69;5099853;28;20036;-51
2023/01/25 08:52:00;;;;;;;108.13;37.40;;;;;;;0.69;93.44;102958.69;5083054;28;20060;-51
2023/01/25 08:54:28;;;;;;;118.43;38.65;;;;;;;0.85;92.93;102966.16;5110722;28;20046;-50
2023/01/25 08:56:54;;;;;;;103.45;36.03;;;;;;;0.96;92.32;102961.53;5083467;28;20065;-50
2023/01/25 08:59:23;;;;;;;106.93;37.17;;;;;;;0.97;92.55;102954.56;5087084;28;20039;-50
2023/01/25 09:01:51;;;;;;;111.93;38.20;;;;;;;1.06;92.73;102951.72;5076139;28;20041;-52
2023/01/25 09:04:18;;;;;;;115.75;39.55;;;;;;;1.02;92.85;102950.06;5080708;28;20047;-51
2023/01/25 09:06:44;;;;;;;111.65;37.88;;;;;;;1.03;92.60;102951.78;5099577;28;20089;-52
2023/01/25 09:09:12;;;;;;;104.72;36.92;;;;;;;1.07;93.12;102951.66;5102343;28;20031;-50
2023/01/25 09:11:39;;;;;;;124.55;40.55;;;;;;;1.06;92.57;102951.72;5086693;28;20050;-51
2023/01/25 09:14:06;;;;;;;112.30;39.00;;;;;;;1.03;92.94;102949.16;5075844;28;20048;-50
2023/01/25 09:16:33;;;;;;;111.05;37.78;;;;;;;1.03;93.03;102944.78;5095399;28;20044;-50
2023/01/25 09:19:02;;;;;;;116.75;38.03;;;;;;;0.75;93.53;102939.41;5103087;28;20097;-51
2023/01/25 09:21:29;;;;;;;119.60;37.65;;;;;;;0.79;93.47;102933.19;5066453;28;20036;-50
2023/01/25 09:23:56;;;;;;;114.25;38.45;;;;;;;0.79;94.57;102943.66;5090155;28;20146;-51
2023/01/25 09:26:33;;;;;;;112.75;37.97;;;;;;;0.78;93.90;102941.91;5097097;28;20045;-50
2023/01/25 09:29:00;;;;;;;119.40;38.55;;;;;;;0.88;94.12;102939.97;5094091;28;20434;-51
2023/01/25 09:31:28;;;;;;;113.32;37.50;;;;;;;0.97;93.44;102946.72;5073989;28;20048;-50
2023/01/25 09:34:14;;;;;;;120.15;37.33;;;;;;;1.05;92.55;102926.47;5102033;28;20493;-50
2023/01/25 09:36:41;;;;;;;111.25;36.83;;;;;;;1.04;92.45;102933.44;5073777;28;20052;-52
2023/01/25 09:39:11;;;;;;;119.18;38.22;;;;;;;1.11;92.69;102921.06;5100695;28;20113;-50
2023/01/25 09:42:06;;;;;;;123.70;37.13;;;;;;;0.99;92.38;102921.41;5096767;28;20556;-51
2023/01/25 09:45:20;;;;;;;118.80;37.72;;;;;;;0.92;93.39;102924.16;5080525;28;20528;-51
2023/01/25 09:47:58;;;;;;;120.25;37.28;;;;;;;0.85;93.30;102911.28;5093542;28;20750;-52
2023/01/25 09:50:35;;;;;;;125.28;39.83;;;;;;;1.04;93.21;102916.91;5101495;28;20047;-51
2023/01/25 09:53:31;;;;;;;114.05;35.85;;;;;;;1.13;92.51;102908.84;5088173;28;20051;-51
2023/01/25 09:56:08;;;;;;;123.28;37.22;;;;;;;1.10;92.45;102912.38;5079751;28;20052;-50
2023/01/25 09:58:43;;;;;;;113.15;35.80;;;;;;;1.02;93.02;102916.06;5086223;28;20139;-50
2023/01/25 10:01:42;;;;;;;108.65;36.85;;;;;;;1.04;92.14;102919.53;5082516;28;20044;-52
2023/01/25 10:04:16;;;;;;;99.10;34.28;;;;;;;0.94;93.32;102911.03;5095113;28;20044;-51
2023/01/25 10:06:47;;;;;;;114.75;34.53;;;;;;;0.80;94.44;102908.78;5096665;28;20062;-49
2023/01/25 10:09:49;;;;;;;113.72;35.38;;;;;;;0.90;93.73;102904.19;5093172;28;20707;-51
2023/01/25 10:12:22;;;;;;;114.38;34.95;;;;;;;0.87;93.28;102909.47;5110862;28;20051;-50
2023/01/25 10:14:50;;;;;;;119.80;36.30;;;;;;;0.86;93.77;102902.56;5067402;28;20047;-50
2023/01/25 10:17:40;;;;;;;138.95;39.85;;;;;;;0.77;94.19;102894.03;5084009;28;20101;-51
2023/01/25 10:20:37;;;;;;;136.73;40.45;;;;;;;0.90;94.22;102902.41;5098668;28;20040;-51
2023/01/25 10:23:44;;;;;;;121.50;36.30;;;;;;;1.15;92.46;102900.03;5093805;28;20055;-51
2023/01/25 10:26:25;;;;;;;116.88;36.80;;;;;;;1.17;92.03;102900.00;5071849;28;20043;-51
2023/01/25 10:31:53;;;;;;;110.15;33.78;;;;;;;1.00;92.71;102890.00;5085575;27;19928;-52
2023/01/25 10:34:26;;;;;;;119.22;35.65;;;;;;;0.97;92.79;102892.69;5068997;28;20424;-52
2023/01/25 10:36:55;;;;;;;121.78;35.67;;;;;;;0.93;92.13;102885.81;5082399;28;20052;-50
2023/01/25 10:39:22;;;;;;;125.60;37.17;;;;;;;0.74;93.00;102880.19;5073924;28;20119;-50
2023/01/25 10:41:55;;;;;;;132.90;38.88;;;;;;;0.98;92.72;102870.84;5095208;28;20047;-51
2023/01/25 10:44:24;;;;;;;119.28;37.45;;;;;;;1.11;93.07;102871.38;5057705;28;20143;-51
2023/01/25 10:47:06;;;;;;;134.48;39.88;;;;;;;1.21;92.42;102861.56;5092459;28;20051;-51
2023/01/25 10:49:45;;;;;;;128.52;38.53;;;;;;;1.30;92.08;102864.78;5074482;28;20569;-52
2023/01/25 10:52:18;;;;;;;124.97;38.60;;;;;;;1.30;90.63;102853.47;5086243;28;20133;-50
2023/01/25 10:54:49;;;;;;;113.22;36.00;;;;;;;1.27;90.35;102853.53;5064846;28;20044;-51
2023/01/25 10:57:19;;;;;;;121.68;37.13;;;;;;;1.17;90.63;102858.19;5075239;28;20176;-53
2023/01/25 10:59:49;;;;;;;125.50;38.10;;;;;;;1.23;90.94;102852.75;5063428;28;20049;-54
2023/01/25 11:02:38;;;;;;;126.50;37.85;;;;;;;1.22;90.85;102847.56;5061138;28;20072;-51
2023/01/25 11:05:29;;;;;;;132.00;38.75;;;;;;;1.28;90.59;102842.19;5089285;28;20060;-52
2023/01/25 11:07:56;;;;;;;118.65;37.72;;;;;;;1.31;90.37;102837.75;5064733;28;20036;-53
2023/01/25 11:13:28;;;;;;;119.50;37.15;;;;;;;1.24;91.33;102843.19;5091941;27;20584;-50
2023/01/25 11:16:18;;;;;;;129.75;40.85;;;;;;;1.19;91.08;102826.75;5082997;28;20135;-51
2023/01/25 11:18:51;;;;;;;132.50;39.25;;;;;;;1.22;90.90;102821.44;5083148;28;20058;-51
2023/01/25 11:21:22;;;;;;;133.45;38.75;;;;;;;1.11;91.94;102820.00;5081949;28;20036;-51
2023/01/25 11:24:03;;;;;;;143.32;41.30;;;;;;;1.14;91.38;102817.25;5104339;28;20096;-51
2023/01/25 11:26:32;;;;;;;152.82;45.53;;;;;;;1.25;91.54;102811.75;5104454;28;20048;-51
2023/01/25 11:29:21;;;;;;;142.30;41.40;;;;;;;1.19;91.80;102806.69;5101991;28;20464;-51
2023/01/25 11:31:53;;;;;;;147.90;39.90;;;;;;;1.28;91.45;102806.44;5098875;28;20039;-52
2023/01/25 11:34:25;;;;;;;130.75;39.17;;;;;;;1.43;90.27;102792.06;5097741;28;21008;-50
2023/01/25 11:37:21;;;;;;;142.20;41.53;;;;;;;1.33;90.70;102781.00;5112505;27;20485;-50
2023/01/25 11:40:17;;;;;;;126.32;37.70;;;;;;;1.34;90.87;102774.00;5082303;28;20036;-49